Not for real navigation | The accuracy of this data is not assured | See disclaimer for more information
ICAO NAME COUNTRY WIND Kt GUST Kt VIS TEMP/DEW BARO
CYYT St. John's, Nfld Canada 0 0 800 -5/-6 28.87
CYYT 180530Z 36062G//KT 0.5SM -SN BLSN VV003 M05/M06 A2887 RMK SN8 WND ESTD PRESRR SLP784
NZSP Amundsen-Scott South Pole Stat Antarctica 11 0 9999 -28/0 28.92
NZSP 180550Z 36011KT 9999 FEW100 M28/ A2892 RMK CLN AIR 03010KT ALL WNDS GRID SDG/HDG
SCRM 26 0 9999 0/-3 29.00
SCRM 180600Z 11026KT 9999 BKN017 M00/M03 Q0982 NOSIG
CYQX Gander Int. Airport, Nfld. Canada 28 49 9999 -8/-9 29.18
CYQX 180600Z 33028G49KT 0SM R13/0900V1400FT/N R03/1100FT/N -SN BLSN VV002 M08/M09 A2918 RMK BLSN8 /S13/ PRESRR SLP893
UOOO 7 0 9000 -29/-32 29.18
UOOO 180600Z 19007KT 9000 DRSN SCT/// M29/M32 Q0988 R19/39//38 NOSIG RMK QFE725/0967

Show more

Close Menu